Time;durP1;ratioP1;P1;durP2;ratioP2;P2;SDS_P1;SDS_P2;PMS_P1;PMS_P2;Temp;Humidity;BMP_temperature;BMP_pressure;BME280_temperature;BME280_humidity;BME280_pressure;Samples;Min_cycle;Max_cycle;Signal;HPM_P1;HPM_P2
2022/07/02 00:01:12;;;;;;;4.30;2.20;;;16.00;84.10;;;16.45;60.59;98274.47;5042384;28;20217;-50
2022/07/02 00:03:49;;;;;;;2.88;2.00;;;16.00;84.20;;;16.41;61.10;98275.03;5042421;28;20049;-46
2022/07/02 00:06:22;;;;;;;3.28;1.90;;;16.00;85.10;;;16.36;60.73;98269.38;5040833;28;20049;-48
2022/07/02 00:08:51;;;;;;;2.92;2.05;;;15.90;85.70;;;16.33;61.07;98274.09;5042085;28;20045;-48
2022/07/02 00:11:20;;;;;;;2.17;1.77;;;15.90;86.20;;;16.28;61.29;98271.13;5040999;28;20056;-47
2022/07/02 00:13:49;;;;;;;4.40;2.38;;;15.80;86.50;;;16.23;61.37;98268.16;5042046;28;20041;-45
2022/07/02 00:16:17;;;;;;;3.88;2.17;;;15.70;87.40;;;16.18;61.50;98270.53;5040964;28;20049;-45
2022/07/02 00:18:45;;;;;;;3.72;1.83;;;15.70;88.00;;;16.12;61.75;98268.59;5041809;28;20045;-48
2022/07/02 00:21:14;;;;;;;3.13;2.03;;;15.70;88.50;;;16.10;61.80;98266.06;5042031;28;20050;-51
2022/07/02 00:23:43;;;;;;;2.72;2.40;;;15.70;89.00;;;16.11;61.75;98273.13;5041155;28;20049;-45
2022/07/02 00:26:39;;;;;;;5.13;2.03;;;15.70;89.30;;;16.12;61.75;98279.34;5041545;28;20221;-45
2022/07/02 00:29:21;;;;;;;2.35;1.98;;;15.70;90.20;;;16.09;62.03;98280.53;5041828;28;20378;-47
2022/07/02 00:31:52;;;;;;;2.72;2.13;;;15.70;90.00;;;16.10;61.86;98279.50;5024753;28;20049;-46
2022/07/02 00:34:23;;;;;;;4.03;2.00;;;15.60;89.60;;;16.08;61.97;98278.84;5041886;28;20216;-47
2022/07/02 00:36:52;;;;;;;3.97;1.90;;;15.70;90.00;;;16.06;61.95;98278.19;5040816;28;20244;-49
2022/07/02 00:39:20;;;;;;;7.03;2.22;;;15.60;90.10;;;16.05;62.00;98279.22;5041753;28;20053;-50
2022/07/02 00:41:48;;;;;;;3.38;2.30;;;15.60;90.10;;;16.02;62.18;98278.75;5041842;28;20060;-49
2022/07/02 00:44:19;;;;;;;2.55;2.17;;;15.60;90.50;;;16.00;62.38;98278.94;5041143;28;20060;-46
2022/07/02 00:46:49;;;;;;;3.63;2.08;;;15.60;91.10;;;15.98;62.53;98280.13;5041013;28;20124;-45
2022/07/02 00:49:17;;;;;;;2.88;2.35;;;15.60;91.70;;;15.99;62.33;98279.94;5041674;28;20053;-47
2022/07/02 00:51:45;;;;;;;2.17;1.75;;;15.60;91.30;;;15.98;62.26;98274.75;5041776;28;20041;-48
2022/07/02 00:54:13;;;;;;;2.58;2.08;;;15.60;91.00;;;16.00;62.50;98276.25;5041703;28;20349;-48
2022/07/02 00:56:42;;;;;;;3.35;2.00;;;15.60;91.40;;;15.98;62.55;98264.03;5041672;28;20107;-48
2022/07/02 00:59:10;;;;;;;2.88;2.20;;;15.60;91.30;;;15.98;62.47;98269.41;5041509;28;20048;-48
2022/07/02 01:01:38;;;;;;;2.40;2.00;;;15.60;91.30;;;15.96;62.54;98272.25;5042126;28;20060;-45
2022/07/02 01:04:07;;;;;;;3.45;1.90;;;15.60;91.90;;;15.96;62.74;98272.25;5041525;28;20049;-49
2022/07/02 01:06:38;;;;;;;2.50;2.10;;;15.50;91.80;;;15.96;62.91;98269.56;5039976;28;20053;-49
2022/07/02 01:11:59;;;;;;;2.20;1.90;;;15.50;92.40;;;15.92;62.67;98262.88;5045095;28;20067;-48
2022/07/02 01:14:28;;;;;;;2.63;2.00;;;15.50;92.70;;;15.88;62.88;98259.72;5045220;28;20041;-46
2022/07/02 01:16:56;;;;;;;2.08;1.88;;;15.50;93.00;;;15.88;62.84;98257.03;5045187;28;20362;-46
2022/07/02 01:19:24;;;;;;;4.03;2.28;;;15.50;92.80;;;15.89;62.75;98260.56;5045063;28;20056;-45
2022/07/02 01:22:44;;;;;;;3.17;1.80;;;15.50;92.50;;;15.86;62.74;98264.44;5045669;28;20064;-46
2022/07/02 01:25:12;;;;;;;2.10;1.90;;;15.50;93.30;;;15.85;62.74;98262.75;5060176;28;20055;-46
2022/07/02 01:27:40;;;;;;;2.47;2.20;;;15.40;92.30;;;15.84;62.75;98262.94;5044543;28;20225;-45
2022/07/02 01:30:09;;;;;;;6.10;1.85;;;15.40;92.10;;;15.84;62.80;98260.25;5045522;28;20057;-47
2022/07/02 01:32:37;;;;;;;5.13;2.38;;;15.50;92.80;;;15.81;63.27;98266.81;5044831;28;20045;-44
2022/07/02 01:35:08;;;;;;;3.40;2.33;;;15.40;93.60;;;15.73;63.60;98261.53;5045174;28;20369;-45
2022/07/02 01:37:40;;;;;;;6.40;3.03;;;15.30;95.60;;;15.69;63.75;98252.94;5044476;28;20056;-48
2022/07/02 01:40:10;;;;;;;4.43;2.88;;;15.30;97.50;;;15.65;63.84;98256.19;5045303;28;20252;-48
2022/07/02 01:42:38;;;;;;;3.70;2.40;;;15.20;98.60;;;15.64;63.72;98254.50;5044439;28;20049;-45
2022/07/02 01:45:06;;;;;;;3.25;2.47;;;15.20;99.70;;;15.61;63.91;98255.69;5044897;28;20060;-44
2022/07/02 01:47:34;;;;;;;4.18;2.47;;;15.20;99.90;;;15.55;64.00;98253.75;5044363;28;20049;-45
2022/07/02 01:50:02;;;;;;;3.50;3.20;;;15.10;99.90;;;15.50;64.17;98256.09;5044547;28;20243;-47
2022/07/02 01:52:30;;;;;;;3.45;2.70;;;15.00;99.90;;;15.45;64.44;98259.34;5044348;28;20366;-49
2022/07/02 01:54:58;;;;;;;4.10;2.53;;;15.00;99.90;;;15.49;64.40;98257.09;5044494;28;20358;-45
2022/07/02 01:57:29;;;;;;;3.58;2.50;;;15.10;99.90;;;15.50;64.57;98254.25;5044222;28;20051;-45
2022/07/02 01:59:57;;;;;;;4.53;2.88;;;15.10;99.90;;;15.52;64.24;98256.75;5044566;28;20045;-46
2022/07/02 02:02:25;;;;;;;2.90;2.60;;;15.20;99.90;;;15.55;64.21;98254.56;5044282;28;20233;-47
2022/07/02 02:04:53;;;;;;;3.58;2.35;;;15.20;99.90;;;15.55;64.01;98249.19;5024941;28;20054;-44
2022/07/02 02:07:21;;;;;;;3.83;2.25;;;15.20;99.90;;;15.54;63.85;98252.88;5024443;28;20050;-49
2022/07/02 02:09:49;;;;;;;3.35;2.80;;;15.20;99.90;;;15.55;64.08;98257.25;5024194;28;20045;-46
2022/07/02 02:12:17;;;;;;;3.53;2.45;;;15.20;99.90;;;15.55;63.96;98251.06;5024442;28;20054;-47
2022/07/02 02:14:44;;;;;;;3.90;2.50;;;15.20;99.90;;;15.54;63.90;98252.88;5024306;28;20366;-46
2022/07/02 02:17:12;;;;;;;2.88;2.38;;;15.20;99.90;;;15.51;64.34;98255.94;5024334;28;20049;-47
2022/07/02 02:19:40;;;;;;;4.50;2.78;;;15.10;99.90;;;15.48;64.27;98255.44;5022941;28;20045;-47
2022/07/02 02:22:08;;;;;;;5.90;2.83;;;15.10;99.90;;;15.43;64.50;98252.44;5023497;28;20053;-50
2022/07/02 02:24:36;;;;;;;3.67;3.10;;;15.00;99.90;;;15.42;64.55;98254.31;5023067;28;20079;-45
2022/07/02 02:27:05;;;;;;;7.35;2.78;;;15.00;99.90;;;15.44;64.62;98257.66;5024160;28;20344;-46
2022/07/02 02:29:35;;;;;;;3.20;2.33;;;15.10;99.90;;;15.43;64.58;98255.13;5023726;28;20046;-47
2022/07/02 02:32:03;;;;;;;4.03;1.90;;;15.00;99.90;;;15.43;64.64;98258.69;5024640;28;20504;-48
2022/07/02 02:34:31;;;;;;;4.05;2.72;;;15.00;99.90;;;15.44;64.68;98251.47;5023897;28;20042;-48
2022/07/02 02:36:59;;;;;;;3.08;2.75;;;15.10;99.90;;;15.43;64.98;98247.94;5024303;28;20270;-48
2022/07/02 02:39:27;;;;;;;4.05;2.67;;;15.10;99.90;;;15.43;64.84;98249.78;5023287;28;20046;-47
2022/07/02 02:41:54;;;;;;;3.88;2.55;;;15.10;99.90;;;15.42;65.04;98248.94;5024504;28;20062;-45
2022/07/02 02:44:22;;;;;;;4.75;2.92;;;15.00;99.90;;;15.44;65.08;98251.47;5023542;28;20057;-45
2022/07/02 02:46:50;;;;;;;5.25;2.60;;;15.10;99.90;;;15.42;64.81;98245.44;5024204;28;20061;-48
2022/07/02 02:49:18;;;;;;;4.53;2.65;;;15.00;99.90;;;15.36;64.73;98252.34;5023238;28;20256;-45
2022/07/02 02:51:46;;;;;;;3.60;2.65;;;14.90;99.90;;;15.33;64.91;98250.00;5023618;28;20056;-45
2022/07/02 02:54:13;;;;;;;4.57;3.20;;;14.90;99.90;;;15.28;65.18;98253.22;5023577;28;20049;-46
2022/07/02 02:56:41;;;;;;;3.33;2.95;;;14.90;99.90;;;15.31;65.08;98257.38;5023924;28;20046;-46
2022/07/02 02:59:09;;;;;;;4.32;2.90;;;14.90;99.90;;;15.30;64.95;98255.72;5023722;28;20046;-45
2022/07/02 03:01:37;;;;;;;6.55;3.08;;;14.90;99.90;;;15.27;65.04;98262.25;5023617;28;20052;-46
2022/07/02 03:04:05;;;;;;;4.60;2.95;;;14.90;99.90;;;15.26;65.27;98257.94;5023137;28;20213;-49
2022/07/02 03:06:33;;;;;;;5.22;2.90;;;14.90;99.90;;;15.26;65.22;98249.06;5023417;28;20042;-44
2022/07/02 03:09:00;;;;;;;4.32;2.92;;;14.90;99.90;;;15.28;65.32;98255.91;5022726;28;20148;-46
2022/07/02 03:11:28;;;;;;;3.05;2.60;;;14.90;99.90;;;15.29;65.28;98254.06;5023245;28;20063;-45
2022/07/02 03:13:56;;;;;;;3.30;2.65;;;15.00;99.90;;;15.30;65.32;98255.72;5023399;28;20056;-45
2022/07/02 03:16:24;;;;;;;5.07;2.90;;;15.00;99.90;;;15.26;65.21;98260.63;5023110;28;20055;-51
2022/07/02 03:18:52;;;;;;;4.90;2.95;;;14.90;99.90;;;15.24;65.17;98259.97;5022881;28;20041;-46
2022/07/02 03:21:20;;;;;;;5.90;3.00;;;14.80;99.90;;;15.20;65.36;98269.38;5023535;28;20053;-48
2022/07/02 03:23:48;;;;;;;2.78;2.47;;;14.80;99.90;;;15.18;65.46;98266.03;5023173;28;20356;-46
2022/07/02 03:26:16;;;;;;;4.65;2.90;;;14.80;99.90;;;15.19;65.61;98262.31;5023128;28;20042;-48
2022/07/02 03:28:43;;;;;;;4.40;2.40;;;14.80;99.90;;;15.23;65.48;98262.81;5023034;28;20046;-48
2022/07/02 03:31:11;;;;;;;3.65;2.22;;;14.90;99.90;;;15.25;65.59;98263.47;5022869;28;20052;-47
2022/07/02 03:33:40;;;;;;;3.58;3.03;;;14.90;99.90;;;15.25;65.70;98275.03;5023511;28;20240;-46
2022/07/02 03:36:08;;;;;;;3.65;2.67;;;14.90;99.90;;;15.27;65.49;98272.16;5023240;28;20048;-48
2022/07/02 03:38:36;;;;;;;3.90;2.70;;;14.90;99.90;;;15.24;65.52;98275.22;5022333;28;20041;-44
2022/07/02 03:41:06;;;;;;;3.65;2.47;;;14.90;99.90;;;15.24;65.58;98272.53;5005761;28;20049;-49
2022/07/02 03:43:35;;;;;;;7.15;2.65;;;14.90;99.90;;;15.21;65.64;98273.69;5022690;28;20060;-45
2022/07/02 03:46:03;;;;;;;2.88;2.47;;;14.80;99.90;;;15.19;65.97;98277.59;5022198;28;20046;-48
2022/07/02 03:48:31;;;;;;;4.05;2.70;;;14.80;99.90;;;15.17;66.04;98277.75;5021852;28;20060;-47
2022/07/02 03:51:00;;;;;;;5.43;3.13;;;14.80;99.90;;;15.17;66.14;98283.13;5022759;28;20250;-46
2022/07/02 03:53:27;;;;;;;3.38;2.40;;;14.80;99.90;;;15.18;66.29;98275.91;5022894;28;20058;-46
2022/07/02 03:55:55;;;;;;;3.83;2.53;;;14.80;99.90;;;15.21;66.22;98284.44;5023166;28;20060;-46
2022/07/02 03:58:23;;;;;;;3.13;2.58;;;14.90;99.90;;;15.20;66.33;98284.59;5022292;28;20050;-47
2022/07/02 04:00:51;;;;;;;3.28;2.35;;;14.90;99.90;;;15.18;66.37;98282.13;5023221;28;20382;-47
2022/07/02 04:03:19;;;;;;;2.97;2.67;;;14.80;99.90;;;15.18;66.11;98284.81;5022755;28;20169;-47
2022/07/02 04:05:47;;;;;;;5.25;2.60;;;14.80;99.90;;;15.17;66.43;98285.78;5022819;28;20060;-44
2022/07/02 04:08:17;;;;;;;3.53;2.85;;;14.80;99.90;;;15.14;66.59;98287.00;5022290;28;20060;-46
2022/07/02 04:10:45;;;;;;;3.90;3.30;;;14.80;99.90;;;15.16;66.62;98286.81;5022397;28;20374;-46
2022/07/02 04:13:13;;;;;;;6.28;2.97;;;14.80;99.90;;;15.14;66.66;98286.13;5022364;28;20042;-49
2022/07/02 04:15:42;;;;;;;4.70;2.83;;;14.80;99.90;;;15.17;66.69;98291.16;5022670;28;20256;-48
2022/07/02 04:18:10;;;;;;;3.92;2.47;;;14.80;99.90;;;15.18;66.82;98290.16;5022532;28;20129;-47
2022/07/02 04:20:37;;;;;;;4.38;2.45;;;14.80;99.90;;;15.21;67.12;98286.28;5022480;28;20333;-47
2022/07/02 04:23:05;;;;;;;5.47;2.70;;;14.90;99.90;;;15.24;66.88;98283.28;5022327;28;20240;-46
2022/07/02 04:25:33;;;;;;;2.40;2.20;;;14.90;99.90;;;15.27;66.81;98286.41;5022200;28;20052;-47
2022/07/02 04:28:01;;;;;;;3.25;2.25;;;15.00;99.90;;;15.29;66.78;98284.38;5022034;28;20056;-48
2022/07/02 04:30:29;;;;;;;2.63;2.35;;;15.00;99.90;;;15.30;66.86;98279.88;5022929;28;20064;-46
2022/07/02 04:32:57;;;;;;;3.60;2.58;;;15.00;99.90;;;15.31;67.02;98282.34;5022163;28;20355;-45
2022/07/02 04:35:25;;;;;;;6.95;3.03;;;15.00;99.90;;;15.34;67.08;98278.50;5022087;28;20056;-47
2022/07/02 04:37:52;;;;;;;2.70;2.17;;;15.10;99.90;;;15.39;66.96;98297.56;5022074;28;20042;-45
2022/07/02 04:40:20;;;;;;;2.95;2.72;;;15.10;99.90;;;15.42;67.15;98293.72;5022189;28;20042;-45
2022/07/02 04:42:48;;;;;;;2.88;2.22;;;15.20;99.90;;;15.45;66.89;98288.84;5022050;28;20252;-45
2022/07/02 04:45:16;;;;;;;4.00;2.55;;;15.20;99.90;;;15.46;67.16;98282.44;5023775;28;20060;-45
2022/07/02 04:47:44;;;;;;;3.70;2.70;;;15.30;99.90;;;15.48;67.27;98282.28;5025592;28;20064;-46
2022/07/02 04:50:12;;;;;;;3.58;2.65;;;15.20;99.90;;;15.52;67.19;98289.78;5026592;28;20076;-45
2022/07/02 04:52:39;;;;;;;3.13;2.42;;;15.30;99.90;;;15.54;67.37;98287.75;5025957;28;20048;-50
2022/07/02 04:55:07;;;;;;;4.75;2.42;;;15.30;99.90;;;15.58;67.19;98288.25;5025719;28;20233;-45
2022/07/02 04:57:35;;;;;;;3.63;2.22;;;15.40;99.90;;;15.61;67.32;98285.22;5025385;28;20048;-47
2022/07/02 05:00:04;;;;;;;2.90;2.22;;;15.40;99.90;;;15.64;67.22;98292.91;5025956;28;20058;-50
2022/07/02 05:02:32;;;;;;;4.28;2.60;;;15.50;99.90;;;15.64;67.28;98281.34;5025572;28;20427;-47
2022/07/02 05:04:59;;;;;;;3.63;2.33;;;15.50;99.90;;;15.64;67.33;98287.53;5025593;28;20409;-45
2022/07/02 05:07:28;;;;;;;6.72;2.75;;;15.50;99.90;;;15.68;67.28;98290.69;5025568;28;20254;-48
2022/07/02 05:09:58;;;;;;;3.42;2.30;;;15.50;99.90;;;15.71;67.28;98285.00;5026454;28;20046;-46
2022/07/02 05:12:26;;;;;;;2.47;2.20;;;15.50;99.90;;;15.75;67.43;98289.00;5025662;28;20058;-47
2022/07/02 05:14:54;;;;;;;3.17;2.50;;;15.60;99.90;;;15.78;67.29;98290.50;5025483;28;20056;-46
2022/07/02 05:17:22;;;;;;;5.15;2.92;;;15.60;99.90;;;15.82;67.60;98297.19;5025559;28;20064;-46
2022/07/02 05:19:50;;;;;;;4.10;2.60;;;15.70;99.90;;;15.80;67.82;98291.16;5025243;28;20368;-47
2022/07/02 05:22:18;;;;;;;3.05;2.35;;;15.70;99.90;;;15.86;67.70;98293.16;5025535;28;20053;-47
2022/07/02 05:24:46;;;;;;;6.40;2.58;;;15.80;99.90;;;15.89;67.54;98285.53;5025190;28;20046;-48
2022/07/02 05:27:14;;;;;;;4.13;2.45;;;15.80;99.90;;;15.92;67.80;98298.63;5023562;28;20064;-47
2022/07/02 05:29:41;;;;;;;3.67;2.85;;;15.90;99.90;;;16.00;67.89;98299.59;5025474;28;20060;-45
2022/07/02 05:32:15;;;;;;;3.70;2.33;;;15.90;99.90;;;15.99;68.03;98300.59;5025194;28;20037;-49
2022/07/02 05:34:43;;;;;;;3.83;2.33;;;16.00;99.90;;;16.05;67.74;98297.19;5025807;28;20333;-48
2022/07/02 05:37:11;;;;;;;4.05;2.58;;;16.00;99.90;;;16.08;67.62;98297.66;5024405;28;20053;-46
2022/07/02 05:39:39;;;;;;;3.22;2.45;;;16.10;99.90;;;16.14;67.86;98304.97;5024560;28;20068;-50
2022/07/02 05:42:07;;;;;;;3.40;2.60;;;16.10;99.90;;;16.18;67.69;98300.09;5024992;28;20052;-47
2022/07/02 05:44:35;;;;;;;2.95;2.50;;;16.10;99.90;;;16.22;67.84;98306.78;5025001;28;20046;-47
2022/07/02 05:47:04;;;;;;;5.53;2.67;;;16.20;99.90;;;16.26;67.72;98308.06;5025008;28;20046;-45
2022/07/02 05:49:32;;;;;;;3.97;2.40;;;16.20;99.90;;;16.32;67.66;98312.75;5024450;28;20356;-47
2022/07/02 05:52:00;;;;;;;6.03;2.25;;;16.30;99.90;;;16.37;67.71;98314.88;5024908;28;20046;-48
2022/07/02 05:54:28;;;;;;;6.20;2.42;;;16.30;99.90;;;16.43;67.56;98316.00;5024577;28;20041;-48
2022/07/02 05:56:55;;;;;;;4.22;3.08;;;16.40;99.90;;;16.48;67.45;98305.56;5023685;28;20049;-48
2022/07/02 05:59:23;;;;;;;5.25;2.30;;;16.50;99.90;;;16.53;67.65;98309.34;5024468;28;20336;-48
2022/07/02 06:01:51;;;;;;;3.17;1.80;;;16.50;99.90;;;16.60;67.37;98311.31;5024876;28;20050;-46
2022/07/02 06:04:19;;;;;;;6.97;2.38;;;16.60;99.90;;;16.64;66.98;98309.94;5024995;28;20049;-47
2022/07/02 06:09:33;;;;;;;3.22;1.98;;;16.60;99.90;;;16.72;67.13;98312.53;5024387;28;20049;-50
2022/07/02 06:12:01;;;;;;;4.47;2.47;;;16.70;99.90;;;16.79;67.04;98304.53;5024753;28;20056;-49
2022/07/02 06:14:29;;;;;;;2.28;1.88;;;16.70;99.90;;;16.82;66.89;98312.28;5024294;28;20341;-49
2022/07/02 06:16:57;;;;;;;2.60;1.95;;;16.80;99.90;;;16.85;66.91;98312.75;5024896;28;20229;-45
2022/07/02 06:19:25;;;;;;;3.83;2.10;;;16.80;99.90;;;16.88;66.99;98314.22;5023861;28;20049;-48
2022/07/02 06:21:53;;;;;;;2.00;1.67;;;16.90;99.90;;;16.93;66.83;98318.03;5024860;28;20042;-48
2022/07/02 06:24:20;;;;;;;2.85;1.80;;;17.00;99.90;;;16.99;66.74;98318.31;5023983;28;20113;-47
2022/07/02 06:26:48;;;;;;;3.13;2.30;;;17.00;99.90;;;17.02;66.89;98309.84;5024219;28;20247;-48
2022/07/02 06:29:16;;;;;;;5.50;2.10;;;17.00;99.90;;;17.06;66.79;98319.22;5024301;28;20370;-50
2022/07/02 06:31:44;;;;;;;3.65;2.38;;;17.00;99.90;;;17.09;66.69;98316.19;5023856;28;20051;-45
2022/07/02 06:34:12;;;;;;;4.28;2.35;;;17.10;99.90;;;17.10;66.62;98309.78;5024699;28;20065;-49
2022/07/02 06:36:40;;;;;;;3.45;1.85;;;17.10;99.90;;;17.17;66.68;98312.56;5024030;28;20042;-45
2022/07/02 06:39:08;;;;;;;3.83;2.58;;;17.20;99.90;;;17.19;66.60;98310.50;5023732;28;20052;-46
2022/07/02 06:44:22;;;;;;;2.55;2.30;;;17.30;99.90;;;17.27;66.57;98308.56;5023622;28;20054;-45
2022/07/02 06:46:50;;;;;;;3.33;2.90;;;17.30;99.90;;;17.34;66.56;98305.09;5023832;28;20244;-49
2022/07/02 06:49:18;;;;;;;2.65;2.10;;;17.40;99.90;;;17.39;66.42;98305.34;5024194;28;20283;-49
2022/07/02 06:51:46;;;;;;;3.60;2.65;;;17.50;99.90;;;17.46;66.76;98304.41;5023710;28;20046;-49
2022/07/02 06:54:14;;;;;;;2.95;2.65;;;17.50;99.90;;;17.51;66.75;98301.19;5023681;28;20061;-47
2022/07/02 06:56:43;;;;;;;2.80;2.10;;;17.60;99.90;;;17.56;66.59;98301.41;5024494;28;20052;-50
2022/07/02 06:59:11;;;;;;;4.93;2.45;;;17.60;99.90;;;17.60;66.81;98296.50;5023298;28;20041;-51
2022/07/02 07:01:38;;;;;;;3.13;2.20;;;17.70;99.90;;;17.69;66.63;98304.25;5023532;28;20248;-48
2022/07/02 07:04:29;;;;;;;5.65;2.30;;;17.80;99.90;;;17.77;66.58;98299.78;5023437;28;20056;-46
2022/07/02 07:07:00;;;;;;;2.15;1.95;;;17.90;99.90;;;17.82;66.18;98308.97;5023554;28;20054;-46
2022/07/02 07:09:28;;;;;;;2.30;1.88;;;17.90;99.90;;;17.86;66.10;98302.19;5022925;28;20050;-46
2022/07/02 07:11:56;;;;;;;2.08;1.80;;;18.00;99.90;;;17.91;65.51;98304.31;5022039;28;20064;-46
2022/07/02 07:14:24;;;;;;;5.47;2.20;;;18.00;99.90;;;17.94;65.47;98303.94;5023208;28;20042;-49
2022/07/02 07:16:52;;;;;;;4.20;2.40;;;18.10;98.70;;;17.99;65.59;98301.50;5023081;28;20072;-49
2022/07/02 07:19:20;;;;;;;2.78;2.00;;;18.10;98.30;;;18.04;65.32;98304.44;5023490;28;20060;-48
2022/07/02 07:21:48;;;;;;;2.08;1.70;;;18.10;97.80;;;18.07;64.78;98309.44;5023085;28;20046;-48
2022/07/02 07:24:16;;;;;;;1.90;1.60;;;18.20;95.80;;;18.11;64.70;98301.81;5023782;28;20058;-46
2022/07/02 07:26:44;;;;;;;2.90;1.60;;;18.20;94.40;;;18.15;64.56;98292.31;5023669;28;20087;-49
2022/07/02 07:29:12;;;;;;;1.88;1.58;;;18.30;93.80;;;18.19;64.40;98299.00;5023522;28;20360;-48
2022/07/02 07:31:41;;;;;;;2.83;1.50;;;18.30;93.10;;;18.26;64.20;98305.28;5023022;28;20293;-48
2022/07/02 07:34:10;;;;;;;2.47;1.50;;;18.40;92.20;;;18.28;63.46;98297.81;5022857;28;20046;-48
2022/07/02 07:36:38;;;;;;;2.55;1.40;;;18.40;89.60;;;18.34;63.11;98295.38;5022994;28;20050;-48
2022/07/02 07:39:06;;;;;;;1.58;1.33;;;18.50;88.40;;;18.41;63.27;98298.94;5022767;28;20052;-48
2022/07/02 07:41:35;;;;;;;1.40;1.30;;;18.60;88.10;;;18.47;62.71;98292.78;5023677;28;20056;-50
2022/07/02 07:44:03;;;;;;;1.20;1.10;;;18.60;87.10;;;18.55;62.46;98300.72;5022526;28;20252;-51
2022/07/02 07:46:32;;;;;;;4.13;1.30;;;18.70;86.40;;;18.62;62.34;98289.97;5022902;28;20056;-50
2022/07/02 07:48:59;;;;;;;1.85;1.17;;;18.80;85.50;;;18.66;61.72;98289.38;5022261;28;20056;-49
2022/07/02 07:51:28;;;;;;;1.58;1.48;;;18.80;84.20;;;18.69;61.34;98290.88;5022750;28;20052;-48
2022/07/02 07:53:56;;;;;;;1.52;1.02;;;18.80;82.80;;;18.72;60.60;98285.06;5022375;28;20042;-49
2022/07/02 07:56:24;;;;;;;1.60;1.25;;;18.90;82.30;;;18.80;60.94;98278.72;5022897;28;20053;-46
2022/07/02 07:58:52;;;;;;;1.90;1.20;;;18.90;81.30;;;18.85;60.71;98284.34;5022810;28;20049;-50
2022/07/02 08:01:20;;;;;;;2.70;1.17;;;19.00;80.50;;;18.88;59.30;98297.44;5022417;28;20046;-48
2022/07/02 08:03:48;;;;;;;1.50;1.20;;;19.00;78.00;;;18.93;59.72;98289.59;5022827;28;20053;-48
2022/07/02 08:06:16;;;;;;;1.33;1.23;;;19.10;77.70;;;18.95;59.02;98287.50;5022489;28;20053;-49
2022/07/02 08:08:44;;;;;;;2.97;1.35;;;19.10;76.60;;;18.94;57.29;98283.16;5022924;28;20064;-46
2022/07/02 08:11:11;;;;;;;1.48;1.08;;;19.10;73.00;;;19.00;57.20;98276.97;5021210;28;20049;-48
2022/07/02 08:13:39;;;;;;;1.40;1.27;;;19.20;72.80;;;19.04;57.51;98266.63;5022524;28;20045;-51
2022/07/02 08:16:07;;;;;;;1.35;1.20;;;19.20;72.80;;;19.10;58.20;98268.50;5022204;28;20038;-49
2022/07/02 08:18:35;;;;;;;3.35;2.22;;;19.30;74.40;;;19.15;58.01;98267.88;5022080;28;20042;-51
2022/07/02 08:21:03;;;;;;;2.75;1.63;;;19.30;73.90;;;19.20;57.88;98266.25;5021655;28;20050;-46
2022/07/02 08:23:31;;;;;;;1.55;1.23;;;19.40;73.60;;;19.26;57.80;98270.84;5023306;28;20058;-53
2022/07/02 08:25:59;;;;;;;1.50;1.30;;;19.40;73.30;;;19.28;57.27;98262.56;5021860;28;20091;-49
2022/07/02 08:28:26;;;;;;;1.52;1.40;;;19.50;72.50;;;19.32;56.81;98263.81;5022119;28;20045;-49
2022/07/02 08:30:54;;;;;;;2.00;1.20;;;19.50;71.60;;;19.38;57.03;98264.88;5023115;28;20046;-47
2022/07/02 08:33:22;;;;;;;1.50;1.35;;;19.50;72.10;;;19.43;57.09;98257.81;5022228;28;20309;-48
2022/07/02 08:35:50;;;;;;;2.88;1.38;;;19.60;72.00;;;19.49;56.73;98258.88;5022059;28;20056;-50
2022/07/02 08:38:18;;;;;;;1.67;1.30;;;19.70;71.60;;;19.55;56.51;98263.47;5021779;28;20052;-52
2022/07/02 08:40:48;;;;;;;3.13;1.60;;;19.70;71.10;;;19.58;56.22;98260.38;5022589;28;20332;-51
2022/07/02 08:43:17;;;;;;;4.47;1.50;;;19.70;70.40;;;19.60;55.94;98260.16;5022206;28;20251;-49
2022/07/02 08:45:45;;;;;;;3.88;1.63;;;19.80;70.10;;;19.62;55.60;98253.53;5022083;28;20049;-51
2022/07/02 08:48:13;;;;;;;1.67;1.58;;;19.80;69.50;;;19.68;55.93;98257.28;5021654;28;20060;-51
2022/07/02 08:50:41;;;;;;;1.77;1.60;;;19.80;69.80;;;19.71;55.00;98246.03;5022931;28;20374;-47
2022/07/02 08:53:10;;;;;;;1.58;1.15;;;19.90;68.60;;;19.76;54.59;98245.47;5022069;28;20057;-48
2022/07/02 08:55:37;;;;;;;1.45;1.20;;;20.00;68.00;;;19.84;54.93;98242.56;5021819;28;20056;-50
2022/07/02 08:58:06;;;;;;;2.45;1.40;;;20.00;68.60;;;19.92;54.80;98233.44;5021570;28;20042;-49
2022/07/02 09:00:34;;;;;;;1.33;1.10;;;20.10;68.20;;;19.96;54.12;98240.91;5021913;28;20052;-49
2022/07/02 09:03:04;;;;;;;3.17;2.20;;;20.10;67.30;;;20.00;54.34;98234.06;5020968;28;20233;-50
2022/07/02 09:05:34;;;;;;;2.60;1.73;;;20.20;67.70;;;20.04;54.82;98227.19;5020847;28;20060;-47
2022/07/02 09:08:03;;;;;;;1.08;1.00;;;20.20;67.80;;;20.09;54.05;98233.88;5021600;28;20056;-50
2022/07/02 09:10:32;;;;;;;1.70;1.17;;;20.20;66.90;;;20.11;54.33;98232.59;5019882;28;20050;-48
2022/07/02 09:13:02;;;;;;;0.80;0.80;;;20.30;67.20;;;20.16;53.78;98223.88;5021072;28;20054;-48
2022/07/02 09:15:31;;;;;;;4.68;1.50;;;20.40;66.40;;;20.22;53.05;98221.19;5020653;28;20040;-46
2022/07/02 09:17:58;;;;;;;1.45;0.93;;;20.40;65.10;;;20.25;52.60;98217.22;5020406;28;20042;-49
2022/07/02 09:20:27;;;;;;;1.50;1.15;;;20.50;64.10;;;20.29;52.52;98209.53;5022033;28;20054;-48
2022/07/02 09:22:54;;;;;;;2.55;1.13;;;20.50;64.10;;;20.32;52.10;98207.22;5021660;28;20064;-50
2022/07/02 09:25:27;;;;;;;1.83;0.90;;;20.50;63.60;;;20.36;51.74;98205.75;5022273;28;20058;-47
2022/07/02 09:28:05;;;;;;;0.90;0.85;;;20.60;62.40;;;20.38;51.16;98198.28;5021723;28;20054;-49
2022/07/02 09:30:37;;;;;;;2.67;0.82;;;20.60;58.30;;;20.41;49.97;98205.13;5022285;28;20363;-48
2022/07/02 09:33:28;;;;;;;1.35;0.90;;;20.60;59.90;;;20.49;48.50;98201.38;5025167;28;20056;-48
2022/07/02 09:35:58;;;;;;;0.95;0.95;;;20.70;56.80;;;20.54;48.56;98204.28;5025553;28;20056;-48
2022/07/02 09:38:27;;;;;;;1.58;1.08;;;20.70;58.80;;;20.59;49.19;98213.44;5025516;28;20056;-46
2022/07/02 09:40:59;;;;;;;1.05;0.95;;;20.80;59.00;;;20.64;49.09;98208.22;5025097;28;20050;-47
2022/07/02 09:43:32;;;;;;;0.70;0.70;;;20.90;58.60;;;20.69;48.63;98214.88;5024769;28;20046;-50
2022/07/02 09:46:01;;;;;;;0.82;0.82;;;20.90;57.40;;;20.77;48.80;98215.47;5024726;28;20059;-47
2022/07/02 09:48:30;;;;;;;1.67;1.58;;;21.00;58.50;;;20.82;48.82;98207.56;5025098;28;20064;-47
2022/07/02 09:51:04;;;;;;;0.82;0.82;;;21.10;58.10;;;20.90;48.23;98217.31;5025001;28;20340;-48
2022/07/02 09:53:32;;;;;;;1.45;0.90;;;21.10;56.40;;;20.97;48.69;98214.56;5024754;28;20239;-46
2022/07/02 09:56:04;;;;;;;2.70;1.25;;;21.20;57.90;;;20.96;45.30;98219.16;5023397;28;20063;-47
2022/07/02 09:58:33;;;;;;;2.42;1.00;;;21.30;54.30;;;21.07;47.47;98209.53;5024466;28;20041;-48
2022/07/02 10:01:03;;;;;;;2.22;1.05;;;21.30;56.00;;;21.11;46.50;98209.94;5025573;28;20057;-46
2022/07/02 10:03:31;;;;;;;2.13;1.05;;;21.30;55.20;;;21.12;45.47;98203.50;5025635;28;20362;-46
2022/07/02 10:05:59;;;;;;;0.90;0.80;;;21.30;53.90;;;21.19;47.48;98209.69;5023500;28;20071;-52
2022/07/02 10:08:27;;;;;;;1.92;1.70;;;21.40;56.80;;;21.22;45.49;98212.78;5023047;28;20340;-51
2022/07/02 10:10:56;;;;;;;1.20;1.10;;;21.50;53.90;;;21.27;44.66;98217.56;5023352;28;20251;-50
2022/07/02 10:13:24;;;;;;;1.20;1.10;;;21.50;52.50;;;21.31;44.74;98201.72;5025476;28;20057;-48
2022/07/02 10:16:00;;;;;;;1.10;0.90;;;21.60;52.90;;;21.40;46.11;98198.56;5023328;28;20050;-47
2022/07/02 10:18:29;;;;;;;1.77;1.50;;;21.70;54.10;;;21.46;45.91;98199.59;5023886;28;20064;-49
2022/07/02 10:20:59;;;;;;;2.42;1.15;;;21.80;53.80;;;21.50;46.33;98192.69;5024198;28;20060;-48
2022/07/02 10:23:27;;;;;;;1.80;1.42;;;21.80;54.70;;;21.56;45.81;98188.28;5023311;28;20042;-51
2022/07/02 10:25:56;;;;;;;3.97;1.38;;;21.80;54.30;;;21.63;45.45;98183.63;5024382;28;20060;-50
2022/07/02 10:28:25;;;;;;;1.50;1.23;;;21.90;53.60;;;21.67;45.69;98181.31;5023912;28;20050;-49
2022/07/02 10:30:55;;;;;;;0.93;0.93;;;21.90;53.70;;;21.70;45.55;98178.19;5024227;28;20049;-49
2022/07/02 10:33:39;;;;;;;2.20;1.65;;;21.90;53.20;;;21.76;44.48;98182.72;5022996;28;20049;-49
2022/07/02 10:36:11;;;;;;;1.45;1.17;;;22.00;51.90;;;21.80;42.80;98184.75;5023167;28;20042;-50